createdAt,value
2019-02-24T00:01:22.071Z,3.55
2019-02-24T00:02:22.126Z,3.48
2019-02-24T00:04:15.100Z,3.53
2019-02-24T00:05:15.149Z,3.56
2019-02-24T00:07:08.124Z,3.53
2019-02-24T00:08:08.179Z,3.41
2019-02-24T00:10:01.177Z,3.44
2019-02-24T00:11:01.211Z,3.41
2019-02-24T00:12:54.185Z,3.40
2019-02-24T00:13:54.264Z,3.28
2019-02-24T00:15:47.234Z,3.29
2019-02-24T00:16:47.284Z,3.36
2019-02-24T00:18:40.270Z,3.31
2019-02-24T00:19:40.315Z,3.31
2019-02-24T00:21:33.289Z,3.37
2019-02-24T00:22:33.339Z,3.25
2019-02-24T00:24:26.318Z,3.41
2019-02-24T00:25:26.366Z,3.40
2019-02-24T00:27:19.348Z,3.42
2019-02-24T00:28:19.395Z,3.34
2019-02-24T00:30:12.378Z,3.23
2019-02-24T00:31:12.422Z,3.21
2019-02-24T00:33:05.416Z,3.28
2019-02-24T00:34:05.473Z,3.21
2019-02-24T00:35:58.450Z,3.21
2019-02-24T00:36:58.498Z,3.18
2019-02-24T00:38:51.484Z,3.10
2019-02-24T00:39:51.525Z,3.07
2019-02-24T00:41:44.488Z,3.10
2019-02-24T00:42:44.549Z,3.10
2019-02-24T00:44:37.534Z,3.16
2019-02-24T00:45:37.580Z,3.10
2019-02-24T00:47:30.554Z,3.05
2019-02-24T00:48:30.608Z,3.11
2019-02-24T00:50:23.630Z,3.08
2019-02-24T00:51:23.639Z,3.11
2019-02-24T00:53:16.616Z,3.04
2019-02-24T00:54:16.673Z,3.05
2019-02-24T00:56:09.662Z,3.05
2019-02-24T00:57:09.699Z,3.10
2019-02-24T00:59:02.703Z,3.08
2019-02-24T01:00:02.730Z,3.08
2019-02-24T01:01:55.708Z,3.19
2019-02-24T01:02:55.766Z,3.07
2019-02-24T01:04:48.752Z,3.10
2019-02-24T01:05:48.802Z,3.05
2019-02-24T01:07:41.774Z,3.10
2019-02-24T01:08:41.826Z,3.13
2019-02-24T01:10:34.807Z,3.00
2019-02-24T01:11:34.853Z,2.93
2019-02-24T01:13:27.830Z,2.85
2019-02-24T01:14:27.883Z,2.92
2019-02-24T01:16:20.875Z,2.95
2019-02-24T01:17:20.918Z,2.89
2019-02-24T01:19:13.899Z,2.90
2019-02-24T01:20:13.944Z,2.86
2019-02-24T01:22:06.922Z,2.83
2019-02-24T01:23:06.978Z,2.80
2019-02-24T01:24:59.956Z,2.80
2019-02-24T01:26:00.005Z,2.85
2019-02-24T01:27:52.983Z,2.79
2019-02-24T01:28:53.039Z,2.69
2019-02-24T01:30:46.021Z,2.72
2019-02-24T01:31:46.075Z,2.80
2019-02-24T01:33:39.043Z,2.83
2019-02-24T01:34:39.096Z,2.77
2019-02-24T01:36:32.081Z,2.65
2019-02-24T01:37:32.132Z,2.68
2019-02-24T01:39:25.123Z,2.71
2019-02-24T01:40:25.163Z,2.77
2019-02-24T01:42:18.137Z,2.87
2019-02-24T01:43:18.192Z,2.83
2019-02-24T01:45:11.174Z,2.93
2019-02-24T01:46:11.219Z,2.80
2019-02-24T01:48:04.205Z,2.72
2019-02-24T01:49:04.251Z,2.75
2019-02-24T01:50:57.231Z,2.80
2019-02-24T01:51:57.277Z,2.67
2019-02-24T01:53:50.249Z,2.72
2019-02-24T01:54:50.306Z,2.57
2019-02-24T01:56:43.292Z,2.61
2019-02-24T01:57:43.341Z,2.57
2019-02-24T01:59:36.325Z,2.54
2019-02-24T02:00:36.368Z,2.65
2019-02-24T02:02:29.342Z,2.68
2019-02-24T02:03:29.396Z,2.68
2019-02-24T02:05:22.884Z,2.57
2019-02-24T02:06:22.929Z,2.60
2019-02-24T02:08:15.906Z,2.60
2019-02-24T02:09:15.963Z,2.68
2019-02-24T02:11:08.948Z,2.72
2019-02-24T02:12:08.991Z,2.71
2019-02-24T02:14:01.964Z,2.72
2019-02-24T02:15:02.021Z,2.71
2019-02-24T02:16:55.006Z,2.60
2019-02-24T02:17:55.046Z,2.65
2019-02-24T02:19:48.043Z,2.61
2019-02-24T02:20:48.076Z,2.51
2019-02-24T02:22:41.048Z,2.62
2019-02-24T02:23:41.102Z,2.53
2019-02-24T02:25:34.101Z,2.67
2019-02-24T02:26:34.125Z,2.67
2019-02-24T02:28:27.101Z,2.57
2019-02-24T02:29:27.156Z,2.51
2019-02-24T02:31:20.151Z,2.36
2019-02-24T02:32:20.197Z,2.38
2019-02-24T02:34:13.163Z,2.38
2019-02-24T02:35:13.215Z,2.36
2019-02-24T02:37:06.196Z,2.36
2019-02-24T02:38:06.240Z,2.38
2019-02-24T02:39:59.223Z,2.28
2019-02-24T02:40:59.271Z,2.20
2019-02-24T02:42:52.268Z,2.14
2019-02-24T02:43:52.323Z,2.08
2019-02-24T02:45:45.303Z,2.06
2019-02-24T02:46:45.357Z,2.10
2019-02-24T02:48:38.351Z,2.06
2019-02-24T02:49:38.395Z,2.22
2019-02-24T02:51:31.378Z,2.22
2019-02-24T02:52:31.425Z,2.26
2019-02-24T02:54:24.406Z,2.38
2019-02-24T02:55:24.462Z,2.38
2019-02-24T02:57:17.437Z,2.39
2019-02-24T02:58:17.483Z,2.36
2019-02-24T03:00:10.464Z,2.49
2019-02-24T03:01:10.515Z,2.44
2019-02-24T03:03:03.488Z,2.39
2019-02-24T03:04:03.541Z,2.33
2019-02-24T03:05:57.033Z,2.32
2019-02-24T03:06:57.077Z,2.24
2019-02-24T03:08:50.048Z,2.33
2019-02-24T03:09:50.101Z,2.36
2019-02-24T03:11:43.084Z,2.39
2019-02-24T03:12:43.132Z,2.39
2019-02-24T03:14:36.105Z,2.29
2019-02-24T03:15:36.174Z,2.26
2019-02-24T03:17:29.132Z,2.29
2019-02-24T03:18:29.180Z,2.29
2019-02-24T03:20:22.181Z,2.31
2019-02-24T03:21:22.227Z,2.36
2019-02-24T03:23:15.207Z,2.25
2019-02-24T03:24:15.261Z,2.22
2019-02-24T03:26:08.238Z,2.25
2019-02-24T03:27:08.291Z,2.22
2019-02-24T03:29:04.055Z,2.20
2019-02-24T03:30:01.352Z,2.13
2019-02-24T03:31:54.288Z,2.15
2019-02-24T03:32:54.337Z,2.10
2019-02-24T03:34:47.316Z,2.02
2019-02-24T03:35:47.368Z,1.85
2019-02-24T03:37:40.353Z,1.78
2019-02-24T03:38:40.401Z,1.71
2019-02-24T03:40:33.373Z,1.80
2019-02-24T03:41:33.421Z,1.76
2019-02-24T03:43:26.394Z,1.81
2019-02-24T03:44:26.448Z,1.81
2019-02-24T03:46:19.440Z,1.99
2019-02-24T03:47:19.480Z,1.92
2019-02-24T03:49:12.450Z,1.97
2019-02-24T03:50:12.499Z,1.78
2019-02-24T03:52:05.480Z,1.91
2019-02-24T03:53:05.527Z,1.94
2019-02-24T03:54:58.504Z,1.85
2019-02-24T03:55:58.639Z,1.84
2019-02-24T03:57:51.543Z,1.77
2019-02-24T03:58:51.584Z,1.76
2019-02-24T04:00:44.568Z,1.78
2019-02-24T04:01:44.609Z,1.71
2019-02-24T04:03:37.605Z,1.66
2019-02-24T04:04:37.636Z,1.66
2019-02-24T04:06:30.624Z,1.66
2019-02-24T04:07:30.662Z,1.70
2019-02-24T04:09:23.638Z,1.77
2019-02-24T04:10:23.693Z,1.70
2019-02-24T04:12:16.681Z,1.77
2019-02-24T04:13:16.728Z,1.70
2019-02-24T04:15:09.698Z,1.76
2019-02-24T04:16:09.758Z,1.74
2019-02-24T04:18:02.738Z,1.76
2019-02-24T04:19:02.781Z,1.78
2019-02-24T04:20:55.765Z,1.77
2019-02-24T04:21:55.806Z,1.80
2019-02-24T04:23:48.780Z,1.84
2019-02-24T04:24:48.849Z,1.81
2019-02-24T04:26:41.816Z,1.81
2019-02-24T04:27:41.868Z,1.74
2019-02-24T04:29:34.836Z,1.84
2019-02-24T04:30:34.891Z,1.77
2019-02-24T04:32:27.882Z,1.78
2019-02-24T04:33:27.926Z,1.80
2019-02-24T04:35:20.903Z,1.85
2019-02-24T04:36:21.086Z,1.80
2019-02-24T04:38:15.983Z,1.76
2019-02-24T04:39:13.980Z,1.74
2019-02-24T04:41:06.958Z,1.74
2019-02-24T04:42:07.006Z,1.70
2019-02-24T04:43:59.998Z,1.71
2019-02-24T04:45:00.269Z,1.77
2019-02-24T04:46:53.038Z,1.68
2019-02-24T04:47:53.087Z,1.71
2019-02-24T04:49:46.064Z,1.70
2019-02-24T04:50:46.117Z,1.62
2019-02-24T04:52:39.113Z,1.62
2019-02-24T04:53:39.143Z,1.60
2019-02-24T04:55:32.120Z,1.62
2019-02-24T04:56:32.171Z,1.60
2019-02-24T04:58:25.163Z,1.60
2019-02-24T04:59:34.509Z,1.60
2019-02-24T05:01:18.699Z,1.49
2019-02-24T05:02:18.742Z,1.56
2019-02-24T05:04:11.710Z,1.62
2019-02-24T05:05:11.762Z,1.62
2019-02-24T05:07:04.743Z,1.66
2019-02-24T05:08:04.788Z,1.67
2019-02-24T05:09:57.758Z,1.62
2019-02-24T05:10:57.811Z,1.66
2019-02-24T05:12:50.792Z,1.67
2019-02-24T05:13:50.837Z,1.62
2019-02-24T05:15:43.806Z,1.63
2019-02-24T05:16:43.860Z,1.56
2019-02-24T05:18:36.836Z,1.60
2019-02-24T05:19:36.891Z,1.48
2019-02-24T05:21:29.861Z,1.48
2019-02-24T05:22:29.921Z,1.55
2019-02-24T05:24:22.880Z,1.50
2019-02-24T05:25:22.934Z,1.52
2019-02-24T05:27:15.911Z,1.44
2019-02-24T05:28:15.956Z,1.45
2019-02-24T05:30:08.931Z,1.55
2019-02-24T05:31:08.985Z,1.59
2019-02-24T05:33:01.976Z,1.62
2019-02-24T05:34:02.028Z,1.66
2019-02-24T05:35:54.994Z,1.55
2019-02-24T05:36:55.046Z,1.50
2019-02-24T05:38:48.026Z,1.50
2019-02-24T05:39:48.069Z,1.50
2019-02-24T05:41:41.038Z,1.49
2019-02-24T05:42:42.550Z,1.48
2019-02-24T05:44:34.067Z,1.48
2019-02-24T05:45:34.118Z,1.38
2019-02-24T05:47:27.094Z,1.41
2019-02-24T05:48:27.142Z,1.34
2019-02-24T05:50:20.115Z,1.30
2019-02-24T05:51:20.193Z,1.22
2019-02-24T05:53:13.155Z,1.22
2019-02-24T05:54:13.198Z,1.20
2019-02-24T05:56:06.182Z,1.19
2019-02-24T05:57:06.233Z,1.20
2019-02-24T05:58:59.243Z,1.08
2019-02-24T05:59:59.261Z,1.08
2019-02-24T06:01:52.244Z,1.08
2019-02-24T06:02:52.284Z,1.12
2019-02-24T06:04:45.258Z,1.05
2019-02-24T06:05:45.308Z,1.06
2019-02-24T06:07:38.335Z,0.95
2019-02-24T06:08:38.336Z,0.96
2019-02-24T06:10:32.815Z,1.10
2019-02-24T06:11:32.866Z,1.14
2019-02-24T06:13:25.861Z,1.24
2019-02-24T06:14:25.911Z,1.40
2019-02-24T06:16:18.879Z,1.35
2019-02-24T06:17:18.944Z,1.41
2019-02-24T06:19:11.911Z,1.40
2019-02-24T06:20:11.973Z,1.48
2019-02-24T06:22:04.942Z,1.34
2019-02-24T06:23:04.992Z,1.35
2019-02-24T06:24:57.959Z,1.37
2019-02-24T06:25:58.015Z,1.34
2019-02-24T06:27:51.006Z,1.22
2019-02-24T06:28:51.035Z,1.19
2019-02-24T06:30:44.015Z,1.26
2019-02-24T06:31:44.057Z,1.22
2019-02-24T06:33:37.032Z,1.23
2019-02-24T06:34:37.074Z,1.23
2019-02-24T06:36:30.055Z,1.19
2019-02-24T06:37:30.106Z,1.37
2019-02-24T06:39:23.084Z,1.35
2019-02-24T06:40:23.132Z,1.37
2019-02-24T06:42:16.107Z,1.24
2019-02-24T06:43:16.169Z,1.24
2019-02-24T06:45:09.131Z,1.23
2019-02-24T06:46:09.180Z,1.26
2019-02-24T06:48:02.165Z,1.28
2019-02-24T06:49:02.209Z,1.23
2019-02-24T06:50:55.179Z,1.32
2019-02-24T06:51:55.234Z,1.34
2019-02-24T06:53:48.214Z,1.24
2019-02-24T06:54:48.257Z,1.40
2019-02-24T06:56:41.229Z,1.37
2019-02-24T06:57:41.284Z,1.42
2019-02-24T06:59:34.260Z,1.37
2019-02-24T07:00:34.307Z,1.44
2019-02-24T07:02:27.286Z,1.48
2019-02-24T07:03:27.335Z,1.49
2019-02-24T07:05:20.313Z,1.63
2019-02-24T07:06:20.362Z,1.59
2019-02-24T07:08:13.345Z,1.63
2019-02-24T07:09:13.412Z,1.67
2019-02-24T07:11:06.868Z,1.73
2019-02-24T07:12:06.921Z,1.71
2019-02-24T07:13:59.902Z,1.78
2019-02-24T07:14:59.950Z,1.76
2019-02-24T07:16:52.943Z,1.77
2019-02-24T07:17:52.994Z,1.80
2019-02-24T07:19:45.974Z,1.85
2019-02-24T07:20:46.020Z,1.89
2019-02-24T07:22:38.995Z,1.88
2019-02-24T07:23:39.046Z,1.87
2019-02-24T07:25:32.010Z,1.97
2019-02-24T07:26:32.069Z,1.99
2019-02-24T07:28:25.054Z,2.04
2019-02-24T07:29:25.098Z,1.99
2019-02-24T07:31:18.070Z,2.02
2019-02-24T07:32:18.129Z,2.04
2019-02-24T07:34:11.103Z,2.14
2019-02-24T07:35:11.150Z,2.18
2019-02-24T07:37:12.607Z,2.15
2019-02-24T07:38:04.173Z,2.20
2019-02-24T07:39:57.150Z,2.31
2019-02-24T07:40:57.196Z,2.35
2019-02-24T07:42:50.175Z,2.35
2019-02-24T07:43:50.222Z,2.38
2019-02-24T07:45:43.196Z,2.56
2019-02-24T07:46:43.249Z,2.65
2019-02-24T07:48:36.227Z,2.95
2019-02-24T07:49:36.267Z,3.22
2019-02-24T07:51:29.251Z,5.32
2019-02-24T07:52:29.300Z,6.82
2019-02-24T07:54:22.278Z,8.84
2019-02-24T07:55:22.326Z,9.62
2019-02-24T07:57:15.302Z,10.84
2019-02-24T07:58:15.369Z,11.30
2019-02-24T08:00:08.345Z,11.72
2019-02-24T08:01:08.383Z,11.91
2019-02-24T08:03:01.376Z,12.36
2019-02-24T08:04:01.407Z,12.22
2019-02-24T08:05:54.420Z,11.50
2019-02-24T08:06:54.475Z,11.23
2019-02-24T08:08:47.475Z,10.99
2019-02-24T08:09:47.513Z,10.92
2019-02-24T08:11:40.494Z,11.05
2019-02-24T08:12:40.551Z,11.07
2019-02-24T08:14:33.538Z,11.30
2019-02-24T08:15:33.583Z,11.26
2019-02-24T08:17:26.559Z,11.26
2019-02-24T08:18:26.615Z,11.32
2019-02-24T08:20:19.608Z,11.87
2019-02-24T08:21:19.659Z,11.88
2019-02-24T08:23:12.639Z,11.97
2019-02-24T08:24:12.696Z,12.13
2019-02-24T08:26:05.683Z,12.49
2019-02-24T08:27:05.729Z,12.76
2019-02-24T08:28:58.716Z,13.54
2019-02-24T08:29:58.782Z,13.72
2019-02-24T08:31:51.750Z,13.70
2019-02-24T08:32:51.801Z,13.75
2019-02-24T08:34:44.793Z,13.15
2019-02-24T08:35:44.841Z,13.44
2019-02-24T08:37:37.824Z,13.83
2019-02-24T08:38:37.884Z,14.12
2019-02-24T08:40:30.910Z,14.92
2019-02-24T08:41:30.921Z,15.17
2019-02-24T08:43:23.914Z,15.62
2019-02-24T08:44:23.960Z,15.86
2019-02-24T08:46:16.966Z,16.01
2019-02-24T08:47:17.000Z,16.17
2019-02-24T08:49:10.010Z,16.36
2019-02-24T08:50:10.051Z,16.69
2019-02-24T08:52:03.049Z,17.12
2019-02-24T08:53:03.108Z,17.41
2019-02-24T08:54:56.102Z,17.57
2019-02-24T08:55:56.147Z,17.59
2019-02-24T08:57:49.129Z,17.51
2019-02-24T08:58:49.185Z,17.65
2019-02-24T09:00:50.531Z,17.67
2019-02-24T09:01:42.239Z,17.64
2019-02-24T09:03:35.223Z,17.92
2019-02-24T09:04:35.337Z,18.13
2019-02-24T09:06:28.280Z,18.26
2019-02-24T09:07:28.335Z,18.19
2019-02-24T09:09:21.314Z,18.35
2019-02-24T09:10:21.372Z,18.00
2019-02-24T09:12:14.998Z,17.90
2019-02-24T09:13:14.414Z,17.94
2019-02-24T09:15:07.396Z,18.16
2019-02-24T09:16:07.458Z,18.26
2019-02-24T09:18:00.443Z,18.08
2019-02-24T09:19:00.496Z,17.90
2019-02-24T09:20:53.496Z,17.67
2019-02-24T09:21:53.555Z,17.23
2019-02-24T09:23:46.548Z,16.02
2019-02-24T09:24:46.594Z,15.57
2019-02-24T09:26:39.585Z,15.06
2019-02-24T09:27:39.662Z,14.10
2019-02-24T09:29:32.620Z,12.55
2019-02-24T09:30:32.688Z,12.12
2019-02-24T09:32:25.672Z,11.47
2019-02-24T09:33:25.721Z,11.08
2019-02-24T09:35:18.720Z,10.82
2019-02-24T09:36:18.777Z,10.51
2019-02-24T09:38:11.772Z,9.86
2019-02-24T09:39:11.885Z,9.91
2019-02-24T09:41:04.826Z,9.77
2019-02-24T09:42:04.893Z,9.84
2019-02-24T09:43:57.886Z,9.94
2019-02-24T09:44:57.941Z,10.07
2019-02-24T09:46:50.938Z,9.97
2019-02-24T09:47:50.954Z,10.01
2019-02-24T09:49:43.961Z,10.05
2019-02-24T09:50:44.007Z,9.98
2019-02-24T09:52:37.057Z,10.02
2019-02-24T09:53:37.018Z,9.98
2019-02-24T09:55:30.051Z,10.07
2019-02-24T09:56:30.052Z,10.07
2019-02-24T09:58:23.044Z,10.12
2019-02-24T09:59:23.117Z,10.33
2019-02-24T10:01:16.074Z,10.30
2019-02-24T10:02:16.133Z,10.31
2019-02-24T10:04:09.122Z,10.16
2019-02-24T10:05:09.175Z,10.26
2019-02-24T10:07:02.187Z,10.26
2019-02-24T10:08:02.201Z,10.40
2019-02-24T10:09:55.177Z,10.33
2019-02-24T10:10:55.242Z,10.35
2019-02-24T10:12:48.229Z,10.49
2019-02-24T10:13:48.278Z,10.63
2019-02-24T10:15:41.282Z,10.74
2019-02-24T10:16:41.318Z,10.74
2019-02-24T10:18:34.311Z,10.78
2019-02-24T10:19:34.392Z,10.86
2019-02-24T10:21:27.354Z,10.94
2019-02-24T10:22:27.406Z,10.92
2019-02-24T10:24:20.400Z,10.93
2019-02-24T10:25:20.450Z,10.96
2019-02-24T10:27:13.435Z,10.99
2019-02-24T10:28:13.478Z,11.05
2019-02-24T10:30:06.471Z,11.27
2019-02-24T10:31:06.528Z,11.35
2019-02-24T10:32:59.519Z,11.44
2019-02-24T10:33:59.571Z,11.54
2019-02-24T10:35:52.565Z,11.52
2019-02-24T10:36:52.606Z,11.54
2019-02-24T10:38:45.678Z,11.65
2019-02-24T10:39:45.656Z,11.54
2019-02-24T10:41:38.646Z,11.60
2019-02-24T10:42:38.706Z,11.75
2019-02-24T10:44:31.665Z,11.97
2019-02-24T10:45:31.741Z,11.95
2019-02-24T10:47:24.710Z,12.03
2019-02-24T10:48:24.766Z,12.12
2019-02-24T10:50:17.742Z,12.12
2019-02-24T10:51:17.802Z,12.18
2019-02-24T10:53:10.786Z,12.20
2019-02-24T10:54:10.850Z,12.12
2019-02-24T10:56:03.837Z,12.10
2019-02-24T10:57:03.879Z,12.12
2019-02-24T10:58:56.888Z,12.06
2019-02-24T10:59:56.917Z,12.20
2019-02-24T11:01:49.908Z,12.24
2019-02-24T11:02:49.954Z,12.37
2019-02-24T11:04:42.932Z,12.53
2019-02-24T11:05:42.982Z,12.55
2019-02-24T11:07:35.984Z,12.72
2019-02-24T11:08:36.026Z,12.80
2019-02-24T11:10:29.518Z,12.94
2019-02-24T11:11:29.570Z,12.98
2019-02-24T11:13:22.564Z,12.90
2019-02-24T11:14:22.617Z,12.90
2019-02-24T11:16:15.598Z,12.49
2019-02-24T11:17:15.651Z,12.55
2019-02-24T11:19:08.638Z,12.62
2019-02-24T11:20:08.693Z,12.67
2019-02-24T11:22:01.697Z,12.87
2019-02-24T11:23:01.736Z,12.87
2019-02-24T11:24:54.720Z,13.00
2019-02-24T11:25:54.784Z,12.94
2019-02-24T11:27:47.767Z,13.16
2019-02-24T11:28:47.819Z,13.15
2019-02-24T11:30:40.800Z,13.05
2019-02-24T11:31:40.852Z,12.87
2019-02-24T11:33:33.843Z,12.87
2019-02-24T11:34:33.891Z,12.85
2019-02-24T11:36:26.908Z,12.95
2019-02-24T11:37:26.937Z,12.91
2019-02-24T11:39:19.928Z,13.03
2019-02-24T11:40:19.986Z,13.04
2019-02-24T11:42:12.968Z,13.11
2019-02-24T11:43:13.018Z,13.19
2019-02-24T11:45:06.009Z,13.19
2019-02-24T11:46:06.066Z,13.27
2019-02-24T11:47:59.058Z,13.46
2019-02-24T11:48:59.105Z,13.46
2019-02-24T11:50:52.092Z,13.59
2019-02-24T11:51:52.150Z,13.68
2019-02-24T11:53:45.135Z,13.71
2019-02-24T11:54:45.187Z,13.83
2019-02-24T11:56:38.190Z,13.79
2019-02-24T11:57:38.236Z,13.89
2019-02-24T11:59:31.224Z,13.99
2019-02-24T12:00:31.278Z,14.14
2019-02-24T12:02:24.272Z,14.14
2019-02-24T12:03:24.319Z,14.17
2019-02-24T12:05:17.308Z,14.12
2019-02-24T12:06:17.364Z,14.18
2019-02-24T12:08:10.352Z,14.04
2019-02-24T12:09:10.402Z,14.18
2019-02-24T12:11:03.914Z,14.20
2019-02-24T12:12:03.951Z,14.23
2019-02-24T12:13:56.942Z,14.26
2019-02-24T12:14:57.010Z,14.25
2019-02-24T12:16:49.981Z,14.35
2019-02-24T12:17:50.032Z,14.44
2019-02-24T12:19:43.014Z,14.32
2019-02-24T12:20:43.075Z,14.40
2019-02-24T12:22:36.062Z,14.23
2019-02-24T12:23:36.111Z,14.17
2019-02-24T12:25:29.087Z,14.37
2019-02-24T12:26:29.151Z,14.37
2019-02-24T12:28:22.145Z,14.33
2019-02-24T12:29:22.193Z,14.20
2019-02-24T12:31:15.179Z,14.30
2019-02-24T12:32:15.234Z,14.28
2019-02-24T12:34:08.225Z,14.32
2019-02-24T12:35:08.277Z,14.29
2019-02-24T12:37:01.264Z,14.26
2019-02-24T12:38:01.319Z,14.28
2019-02-24T12:39:54.306Z,14.29
2019-02-24T12:40:54.357Z,14.44
2019-02-24T12:42:47.345Z,14.48
2019-02-24T12:43:47.392Z,14.55
2019-02-24T12:45:40.380Z,14.54
2019-02-24T12:46:40.437Z,14.59
2019-02-24T12:48:33.429Z,14.66
2019-02-24T12:49:33.492Z,14.59
2019-02-24T12:51:26.467Z,14.63
2019-02-24T12:52:26.525Z,14.59
2019-02-24T12:54:19.516Z,14.70
2019-02-24T12:55:19.572Z,14.73
2019-02-24T12:57:12.562Z,14.78
2019-02-24T12:58:12.612Z,14.69
2019-02-24T13:00:05.599Z,14.81
2019-02-24T13:01:05.657Z,14.85
2019-02-24T13:02:58.651Z,14.91
2019-02-24T13:03:58.705Z,14.96
2019-02-24T13:05:51.688Z,14.97
2019-02-24T13:06:51.748Z,14.86
2019-02-24T13:08:44.741Z,14.96
2019-02-24T13:09:44.793Z,15.03
2019-02-24T13:11:37.795Z,14.96
2019-02-24T13:12:37.837Z,14.97
2019-02-24T13:14:30.832Z,14.77
2019-02-24T13:15:30.887Z,14.69
2019-02-24T13:17:23.896Z,14.97
2019-02-24T13:18:23.950Z,14.96
2019-02-24T13:20:16.935Z,15.02
2019-02-24T13:21:16.991Z,15.06
2019-02-24T13:23:09.996Z,15.02
2019-02-24T13:24:10.042Z,15.02
2019-02-24T13:26:03.038Z,14.96
2019-02-24T13:27:03.094Z,14.86
2019-02-24T13:28:56.086Z,14.84
2019-02-24T13:29:56.141Z,14.85
2019-02-24T13:31:49.127Z,14.73
2019-02-24T13:32:49.183Z,14.72
2019-02-24T13:34:42.174Z,14.85
2019-02-24T13:35:42.225Z,14.88
2019-02-24T13:37:35.243Z,14.84
2019-02-24T13:38:35.281Z,14.84
2019-02-24T13:40:28.265Z,14.85
2019-02-24T13:41:28.332Z,14.94
2019-02-24T13:43:21.314Z,14.91
2019-02-24T13:44:21.367Z,14.96
2019-02-24T13:46:14.344Z,14.92
2019-02-24T13:47:14.412Z,14.88
2019-02-24T13:49:07.399Z,14.97
2019-02-24T13:50:07.448Z,15.02
2019-02-24T13:52:00.431Z,14.94
2019-02-24T13:53:00.489Z,14.94
2019-02-24T13:55:05.103Z,14.86
2019-02-24T13:56:05.150Z,14.94
2019-02-24T13:57:58.142Z,15.07
2019-02-24T13:58:58.192Z,15.04
2019-02-24T14:00:51.181Z,15.04
2019-02-24T14:01:51.236Z,15.02
2019-02-24T14:03:44.220Z,14.84
2019-02-24T14:04:44.295Z,14.82
2019-02-24T14:06:37.249Z,14.79
2019-02-24T14:07:37.315Z,14.72
2019-02-24T14:09:30.304Z,14.73
2019-02-24T14:10:30.358Z,14.70
2019-02-24T14:12:23.347Z,14.78
2019-02-24T14:13:23.404Z,14.73
2019-02-24T14:15:16.426Z,14.73
2019-02-24T14:16:16.457Z,14.81
2019-02-24T14:18:09.445Z,14.94
2019-02-24T14:19:09.499Z,15.07
2019-02-24T14:21:02.481Z,15.03
2019-02-24T14:22:02.538Z,15.06
2019-02-24T14:23:55.536Z,15.06
2019-02-24T14:24:55.585Z,15.02
2019-02-24T14:26:48.576Z,15.04
2019-02-24T14:27:48.632Z,15.02
2019-02-24T14:29:41.626Z,15.09
2019-02-24T14:30:41.675Z,15.06
2019-02-24T14:32:34.661Z,15.37
2019-02-24T14:33:34.717Z,15.40
2019-02-24T14:35:27.707Z,15.43
2019-02-24T14:36:27.760Z,15.36
2019-02-24T14:38:20.765Z,15.39
2019-02-24T14:39:22.236Z,15.31
2019-02-24T14:41:13.809Z,15.03
2019-02-24T14:42:13.865Z,15.06
2019-02-24T14:44:06.850Z,15.02
2019-02-24T14:45:06.909Z,15.07
2019-02-24T14:46:59.895Z,15.09
2019-02-24T14:47:59.953Z,15.06
2019-02-24T14:49:52.947Z,15.00
2019-02-24T14:50:52.995Z,15.11
2019-02-24T14:52:45.980Z,15.09
2019-02-24T14:53:46.039Z,15.04
2019-02-24T14:55:39.609Z,15.06
2019-02-24T14:56:39.590Z,14.97
2019-02-24T14:58:32.588Z,14.86
2019-02-24T14:59:32.637Z,15.00
2019-02-24T15:01:25.619Z,14.94
2019-02-24T15:02:25.681Z,15.00
2019-02-24T15:04:18.677Z,14.91
2019-02-24T15:05:18.718Z,15.02
2019-02-24T15:07:11.700Z,14.96
2019-02-24T15:08:11.780Z,14.85
2019-02-24T15:10:04.771Z,14.94
2019-02-24T15:11:04.823Z,14.89
2019-02-24T15:12:57.811Z,14.81
2019-02-24T15:13:57.864Z,14.96
2019-02-24T15:15:50.859Z,14.85
2019-02-24T15:16:50.912Z,14.86
2019-02-24T15:18:43.918Z,14.72
2019-02-24T15:19:43.962Z,14.70
2019-02-24T15:21:36.944Z,14.78
2019-02-24T15:22:37.006Z,14.72
2019-02-24T15:24:30.006Z,14.72
2019-02-24T15:25:30.073Z,14.72
2019-02-24T15:27:23.041Z,14.84
2019-02-24T15:28:23.109Z,14.78
2019-02-24T15:30:16.096Z,14.78
2019-02-24T15:31:16.151Z,14.77
2019-02-24T15:33:09.159Z,14.72
2019-02-24T15:34:09.211Z,14.77
2019-02-24T15:36:02.183Z,14.65
2019-02-24T15:37:02.245Z,14.65
2019-02-24T15:38:55.254Z,14.62
2019-02-24T15:39:55.299Z,14.70
2019-02-24T15:41:48.286Z,14.65
2019-02-24T15:42:48.346Z,14.62
2019-02-24T15:44:41.337Z,14.65
2019-02-24T15:45:41.388Z,14.66
2019-02-24T15:47:34.395Z,14.65
2019-02-24T15:48:34.433Z,14.62
2019-02-24T15:50:27.450Z,14.63
2019-02-24T15:51:27.484Z,14.58
2019-02-24T15:53:20.460Z,14.47
2019-02-24T15:54:20.521Z,14.54
2019-02-24T15:56:13.513Z,14.53
2019-02-24T15:57:13.586Z,14.55
2019-02-24T15:59:06.551Z,14.53
2019-02-24T16:00:06.609Z,14.44
2019-02-24T16:01:59.609Z,14.44
2019-02-24T16:03:01.727Z,14.44
2019-02-24T16:04:52.636Z,14.40
2019-02-24T16:05:52.695Z,14.35
2019-02-24T16:07:45.693Z,14.40
2019-02-24T16:08:45.745Z,14.32
2019-02-24T16:10:38.735Z,14.35
2019-02-24T16:11:38.775Z,14.30
2019-02-24T16:13:31.759Z,14.20
2019-02-24T16:14:31.837Z,14.18
2019-02-24T16:16:24.812Z,14.14
2019-02-24T16:17:24.856Z,14.17
2019-02-24T16:19:17.885Z,14.14
2019-02-24T16:20:17.898Z,14.12
2019-02-24T16:22:10.891Z,14.08
2019-02-24T16:23:10.949Z,14.03
2019-02-24T16:25:03.941Z,13.97
2019-02-24T16:26:03.995Z,13.96
2019-02-24T16:27:56.997Z,13.83
2019-02-24T16:28:57.053Z,13.85
2019-02-24T16:30:50.075Z,13.78
2019-02-24T16:31:50.103Z,13.77
2019-02-24T16:33:43.090Z,13.87
2019-02-24T16:34:43.146Z,13.72
2019-02-24T16:36:36.136Z,13.72
2019-02-24T16:37:36.184Z,13.72
2019-02-24T16:39:29.177Z,13.57
2019-02-24T16:40:29.227Z,13.52
2019-02-24T16:42:22.284Z,13.41
2019-02-24T16:43:22.338Z,13.42
2019-02-24T16:45:15.416Z,13.27
2019-02-24T16:46:15.382Z,13.25
2019-02-24T16:48:08.361Z,12.97
2019-02-24T16:49:08.438Z,12.93
2019-02-24T16:51:01.411Z,12.82
2019-02-24T16:52:01.463Z,12.75
2019-02-24T16:53:54.453Z,12.61
2019-02-24T16:54:54.511Z,12.64
2019-02-24T16:56:47.511Z,12.40
2019-02-24T16:57:47.561Z,12.32
2019-02-24T16:59:40.557Z,12.22
2019-02-24T17:00:40.608Z,12.06
2019-02-24T17:02:35.545Z,12.04
2019-02-24T17:03:33.669Z,11.94
2019-02-24T17:05:26.650Z,11.80
2019-02-24T17:06:26.696Z,11.73
2019-02-24T17:08:19.689Z,11.59
2019-02-24T17:09:19.747Z,11.59
2019-02-24T17:11:12.734Z,11.45
2019-02-24T17:12:12.784Z,11.29
2019-02-24T17:14:05.796Z,11.17
2019-02-24T17:15:05.822Z,11.25
2019-02-24T17:17:01.540Z,11.07
2019-02-24T17:17:58.861Z,11.07
2019-02-24T17:19:51.855Z,10.86
2019-02-24T17:20:51.902Z,10.86
2019-02-24T17:22:44.887Z,10.71
2019-02-24T17:23:49.847Z,10.78
2019-02-24T17:25:37.937Z,10.84
2019-02-24T17:26:37.989Z,10.89
2019-02-24T17:28:30.971Z,10.89
2019-02-24T17:29:31.025Z,10.99
2019-02-24T17:31:28.431Z,10.94
2019-02-24T17:32:24.074Z,10.86
2019-02-24T17:34:17.051Z,10.71
2019-02-24T17:35:17.111Z,10.63
2019-02-24T17:37:10.103Z,10.46
2019-02-24T17:38:10.154Z,10.37
2019-02-24T17:40:03.143Z,10.20
2019-02-24T17:41:03.197Z,10.33
2019-02-24T17:42:56.198Z,10.37
2019-02-24T17:43:56.255Z,10.46
2019-02-24T17:45:49.255Z,10.41
2019-02-24T17:46:49.290Z,10.35
2019-02-24T17:48:42.275Z,10.46
2019-02-24T17:49:42.331Z,10.53
2019-02-24T17:51:35.320Z,10.48
2019-02-24T17:52:35.371Z,10.38
2019-02-24T17:54:28.351Z,10.12
2019-02-24T17:55:28.409Z,10.20
2019-02-24T17:57:21.402Z,10.04
2019-02-24T17:58:21.452Z,10.01
2019-02-24T18:00:14.477Z,9.97
2019-02-24T18:01:14.492Z,9.91
2019-02-24T18:03:07.477Z,9.87
2019-02-24T18:04:07.542Z,9.72
2019-02-24T18:06:00.538Z,9.64
2019-02-24T18:07:00.595Z,9.51
2019-02-24T18:08:54.410Z,9.40
2019-02-24T18:09:53.639Z,9.39
2019-02-24T18:11:46.632Z,9.37
2019-02-24T18:12:46.681Z,9.41
2019-02-24T18:14:39.673Z,9.37
2019-02-24T18:15:39.718Z,9.31
2019-02-24T18:17:32.707Z,9.21
2019-02-24T18:18:32.760Z,9.18
2019-02-24T18:20:25.781Z,9.13
2019-02-24T18:21:25.798Z,9.10
2019-02-24T18:23:18.784Z,9.08
2019-02-24T18:24:18.863Z,9.11
2019-02-24T18:26:11.830Z,9.13
2019-02-24T18:27:11.881Z,9.18
2019-02-24T18:29:04.873Z,9.04
2019-02-24T18:30:04.915Z,9.08
2019-02-24T18:31:57.909Z,9.00
2019-02-24T18:32:57.961Z,8.87
2019-02-24T18:34:50.942Z,9.03
2019-02-24T18:35:50.998Z,8.99
2019-02-24T18:37:43.985Z,8.97
2019-02-24T18:38:44.035Z,8.91
2019-02-24T18:40:37.025Z,8.87
2019-02-24T18:41:37.090Z,8.76
2019-02-24T18:43:30.057Z,8.76
2019-02-24T18:44:30.111Z,8.79
2019-02-24T18:46:23.096Z,8.78
2019-02-24T18:47:23.148Z,8.64
2019-02-24T18:49:16.131Z,8.67
2019-02-24T18:50:16.189Z,8.66
2019-02-24T18:52:09.198Z,8.70